Wittman Regional Airport

Airport
ICAO code: 
KOSH
Summary
ICAO Region: 
NAM
Territory: 
Location: 
Oshkosh, Wisconsin,
Coordinates: 
Aerial View: 
43° 59' 3.846" N, 88° 33' 25.197" W
Metar
Observation
KOSH 011153Z 16005KT 7SM -SN OVC045 00/M03 A2995 RMK AO2 UPB08E29SNE08B29E30B50 SLP153 P0000 60000 T00001028 10011 21028 58021
Station
Oshkosh, Wittman Regional Airport
Date/Time
2021-12-01 11:53:00
Wind direction
160°
Wind speed
05 kts
Lowest cloud amount
overcast
Temperature
0°C
Dew point
-2.8°C
Humidity
81%
Weather condition
light snow

Description

Airport serving Oshkosh, Wisconsin, USA.

Climatology

Humid continental climate (Köppen climate classification Dfa) - characterized by four seasons: cold, windy, snowy winters, mild springs, hot, humid summers, and crisp and relatively short autumns. Precipitation reaches its lowest in January and February and peaks in summer and latter half of spring.

The city experiences a full range of precipitation and related weather events, including snow, sleet, ice, rain, thunderstorms, tornadoes, heatwaves, and fog.

Runways

Designator Length Width Surface Rops
13/31 933 23 ASP Yes/Yes
4/22 1044 23 ASP Yes/Yes
9/27 1883 46 ASP Yes/Yes
18/36 2439 46 CON Yes/Yes
Airport map: 
Aerial View: 

SKYbrary Partners:

Safety knowledge contributed by: